Time;durP1;ratioP1;P1;durP2;ratioP2;P2;SDS_P1;SDS_P2;PMS_P1;PMS_P2;Temp;Humidity;BMP_temperature;BMP_pressure;BME280_temperature;BME280_humidity;BME280_pressure;Samples;Min_cycle;Max_cycle;Signal;HPM_P1;HPM_P2
2022/03/28 00:01:52;;;;;;;9.57;4.43;;;12.20;91.30;;;;;;7390369;19;20238;-77
2022/03/28 00:04:18;;;;;;;10.90;4.68;;;12.40;91.00;;;;;;7385061;19;20155;-76
2022/03/28 00:06:44;;;;;;;10.85;5.03;;;12.50;90.60;;;;;;7385042;19;20160;-76
2022/03/28 00:09:10;;;;;;;9.48;5.07;;;12.70;90.40;;;;;;7385220;19;20126;-76
2022/03/28 00:11:36;;;;;;;13.80;5.50;;;12.50;90.30;;;;;;7388905;19;20605;-76
2022/03/28 00:14:02;;;;;;;7.70;4.23;;;12.70;90.30;;;;;;7383947;19;20127;-76
2022/03/28 00:16:28;;;;;;;7.90;4.90;;;12.70;90.30;;;;;;7383219;19;20134;-76
2022/03/28 00:18:54;;;;;;;11.25;4.93;;;12.60;90.30;;;;;;7382377;19;20126;-76
2022/03/28 00:21:20;;;;;;;7.90;4.82;;;12.50;90.20;;;;;;7383592;19;20143;-76
2022/03/28 00:23:46;;;;;;;10.40;4.20;;;12.40;90.10;;;;;;7385718;19;20491;-76
2022/03/28 00:26:12;;;;;;;7.93;4.28;;;12.40;90.10;;;;;;7385812;19;20126;-76
2022/03/28 00:28:38;;;;;;;9.63;4.70;;;12.00;90.40;;;;;;7382713;19;20142;-76
2022/03/28 00:31:04;;;;;;;9.47;4.67;;;11.90;90.60;;;;;;7383856;19;20152;-75
2022/03/28 00:33:29;;;;;;;7.63;4.50;;;12.00;90.70;;;;;;7383909;19;20127;-76
2022/03/28 00:35:55;;;;;;;9.80;4.75;;;12.10;90.50;;;;;;7383291;19;20151;-77
2022/03/28 00:38:22;;;;;;;7.93;4.73;;;12.20;90.50;;;;;;7381921;19;20143;-77
2022/03/28 00:40:48;;;;;;;8.50;4.27;;;11.80;90.60;;;;;;7383475;19;20194;-76
2022/03/28 00:43:14;;;;;;;10.67;4.50;;;11.80;90.80;;;;;;7386239;19;20147;-76
2022/03/28 00:45:41;;;;;;;8.17;5.03;;;11.50;91.20;;;;;;7389539;19;20150;-76
2022/03/28 00:48:09;;;;;;;9.20;5.03;;;11.70;91.30;;;;;;7382076;19;20134;-76
2022/03/28 00:50:36;;;;;;;8.13;4.83;;;11.90;91.10;;;;;;7382976;19;20610;-76
2022/03/28 00:53:04;;;;;;;8.37;4.83;;;12.00;90.90;;;;;;7382799;19;20158;-76
2022/03/28 00:55:30;;;;;;;8.63;4.00;;;11.80;91.10;;;;;;7382754;19;20149;-76
2022/03/28 00:57:56;;;;;;;8.50;4.83;;;11.80;90.90;;;;;;7380258;19;20145;-76
2022/03/28 01:00:22;;;;;;;8.53;4.77;;;11.90;90.90;;;;;;7387595;19;20123;-76
2022/03/28 01:02:48;;;;;;;8.30;4.70;;;11.90;91.00;;;;;;7390165;19;20162;-75
2022/03/28 01:05:14;;;;;;;7.13;4.22;;;12.00;91.00;;;;;;7391288;19;20127;-76
2022/03/28 01:07:42;;;;;;;8.17;4.43;;;12.10;90.80;;;;;;7390910;19;20601;-75
2022/03/28 01:10:10;;;;;;;9.30;4.30;;;12.10;90.80;;;;;;7395234;19;20130;-76
2022/03/28 01:12:37;;;;;;;9.13;4.77;;;12.00;90.80;;;;;;7389524;19;20137;-76
2022/03/28 01:15:04;;;;;;;7.85;4.57;;;11.90;90.80;;;;;;7389865;19;20629;-75
2022/03/28 01:20:16;;;;;;;10.47;4.87;;;11.10;91.50;;;;;;7389333;19;20135;-75
2022/03/28 01:22:42;;;;;;;8.93;4.97;;;11.20;91.70;;;;;;7390382;19;20135;-76
2022/03/28 01:25:08;;;;;;;8.67;4.23;;;11.20;91.60;;;;;;7390335;19;20681;-75
2022/03/28 01:27:37;;;;;;;8.40;4.90;;;11.40;91.40;;;;;;7389996;19;20509;-75
2022/03/28 01:30:04;;;;;;;9.10;5.00;;;11.50;91.30;;;;;;7399983;19;20130;-75
2022/03/28 01:32:31;;;;;;;7.77;4.33;;;11.60;91.30;;;;;;7393340;19;20139;-75
2022/03/28 01:34:56;;;;;;;7.77;4.50;;;11.80;91.00;;;;;;7391254;19;20126;-75
2022/03/28 01:37:22;;;;;;;8.38;4.88;;;11.80;91.00;;;;;;7388641;19;20138;-76
2022/03/28 01:39:48;;;;;;;6.43;4.23;;;11.50;90.90;;;;;;7388400;19;20482;-75
2022/03/28 01:42:14;;;;;;;8.20;4.67;;;11.70;91.00;;;;;;7389811;19;20190;-75
2022/03/28 01:44:40;;;;;;;7.80;4.77;;;11.70;91.00;;;;;;7391175;19;20130;-76
2022/03/28 01:47:05;;;;;;;8.50;4.97;;;11.40;91.20;;;;;;7389754;19;20122;-76
2022/03/28 01:49:31;;;;;;;8.30;5.07;;;11.50;91.10;;;;;;7388304;19;20223;-76
2022/03/28 01:51:57;;;;;;;11.03;4.70;;;11.60;91.00;;;;;;7388963;19;20143;-75
2022/03/28 01:54:22;;;;;;;8.63;5.20;;;11.70;91.40;;;;;;7390464;19;20123;-75
2022/03/28 01:56:48;;;;;;;6.90;4.37;;;11.70;91.40;;;;;;7389405;19;20122;-74
2022/03/28 01:59:14;;;;;;;8.60;4.80;;;11.60;91.40;;;;;;7388427;19;20532;-76
2022/03/28 02:01:40;;;;;;;10.43;4.90;;;11.80;91.40;;;;;;7391099;19;20597;-75
2022/03/28 02:04:06;;;;;;;7.50;4.87;;;11.40;91.10;;;;;;7389221;19;20145;-76
2022/03/28 02:06:35;;;;;;;8.73;5.27;;;11.60;91.60;;;;;;7391831;19;20166;-77
2022/03/28 02:09:03;;;;;;;9.17;5.37;;;11.70;91.30;;;;;;7390266;19;20202;-76
2022/03/28 02:11:29;;;;;;;8.83;5.03;;;11.40;91.20;;;;;;7390430;19;20131;-75
2022/03/28 02:13:55;;;;;;;9.33;4.83;;;11.10;91.70;;;;;;7394676;19;20161;-76
2022/03/28 02:16:21;;;;;;;10.03;5.40;;;11.20;91.70;;;;;;7389335;19;20491;-76
2022/03/28 02:18:46;;;;;;;8.33;4.97;;;11.20;91.70;;;;;;7387814;19;20127;-75
2022/03/28 02:21:12;;;;;;;12.03;5.70;;;11.30;91.80;;;;;;7389500;19;20135;-75
2022/03/28 02:23:38;;;;;;;11.20;5.53;;;11.40;91.60;;;;;;7389005;19;20548;-76
2022/03/28 02:26:04;;;;;;;12.70;5.40;;;11.20;91.90;;;;;;7388952;19;20139;-77
2022/03/28 02:28:30;;;;;;;9.23;5.03;;;11.10;92.10;;;;;;7387894;19;20712;-76
2022/03/28 02:30:56;;;;;;;8.80;4.40;;;11.10;92.10;;;;;;7388061;19;20578;-76
2022/03/28 02:33:22;;;;;;;8.43;5.17;;;11.20;92.20;;;;;;7392113;19;20131;-76
2022/03/28 02:35:48;;;;;;;10.30;5.23;;;11.20;92.00;;;;;;7400116;19;20602;-75
2022/03/28 02:38:14;;;;;;;10.07;5.57;;;11.10;92.40;;;;;;7388025;19;20147;-75
2022/03/28 02:40:40;;;;;;;13.47;5.40;;;11.20;92.30;;;;;;7387644;19;20134;-76
2022/03/28 02:43:06;;;;;;;8.40;5.50;;;11.30;92.20;;;;;;7391551;19;20490;-76
2022/03/28 02:45:35;;;;;;;11.63;5.20;;;11.40;92.00;;;;;;7387515;19;20135;-76
2022/03/28 02:48:02;;;;;;;13.50;5.70;;;11.40;91.90;;;;;;7387350;19;20601;-76
2022/03/28 02:50:30;;;;;;;10.40;5.30;;;11.20;91.90;;;;;;7388571;19;20152;-76
2022/03/28 02:52:56;;;;;;;9.03;5.17;;;11.20;92.00;;;;;;7387702;19;20137;-75
2022/03/28 02:55:21;;;;;;;12.10;5.87;;;11.00;91.90;;;;;;7389670;19;20130;-74
2022/03/28 02:57:47;;;;;;;12.17;5.50;;;11.10;91.90;;;;;;7391083;19;20131;-74
2022/03/28 03:00:14;;;;;;;11.50;5.83;;;11.00;92.10;;;;;;7389083;19;20157;-75
2022/03/28 03:02:42;;;;;;;10.27;5.80;;;11.00;92.20;;;;;;7388379;19;20597;-77
2022/03/28 03:05:09;;;;;;;13.23;5.63;;;11.00;92.40;;;;;;7386928;19;20172;-75
2022/03/28 03:07:35;;;;;;;7.53;5.40;;;11.00;92.50;;;;;;7387428;19;20135;-75
2022/03/28 03:10:01;;;;;;;12.77;5.37;;;11.00;92.40;;;;;;7386912;19;20145;-75
2022/03/28 03:12:26;;;;;;;8.20;5.10;;;11.00;92.40;;;;;;7388010;19;20161;-75
2022/03/28 03:14:52;;;;;;;11.43;6.43;;;11.00;92.40;;;;;;7389533;19;20197;-75
2022/03/28 03:17:19;;;;;;;9.83;5.30;;;11.00;92.30;;;;;;7387561;19;20163;-75
2022/03/28 03:19:45;;;;;;;10.57;5.80;;;10.60;92.70;;;;;;7397523;19;20129;-75
2022/03/28 03:22:14;;;;;;;9.27;5.60;;;10.70;92.80;;;;;;7386226;19;20891;-76
2022/03/28 03:24:41;;;;;;;10.67;5.83;;;10.80;92.50;;;;;;7386542;19;20138;-74
2022/03/28 03:27:07;;;;;;;16.13;6.57;;;10.90;92.40;;;;;;7385351;19;20127;-75
2022/03/28 03:29:33;;;;;;;9.17;5.80;;;10.90;92.40;;;;;;7384569;19;20165;-74
2022/03/28 03:31:59;;;;;;;8.63;5.00;;;10.90;92.50;;;;;;7387845;19;20130;-75
2022/03/28 03:34:25;;;;;;;14.50;6.07;;;11.00;92.60;;;;;;7387539;19;20155;-75
2022/03/28 03:36:51;;;;;;;15.63;5.50;;;10.90;92.40;;;;;;7387371;19;20752;-75
2022/03/28 03:39:17;;;;;;;6.83;4.97;;;10.80;92.40;;;;;;7387372;19;20154;-75
2022/03/28 03:41:42;;;;;;;11.03;5.70;;;10.90;92.30;;;;;;7388740;19;20173;-76
2022/03/28 03:44:09;;;;;;;12.47;5.80;;;10.90;92.10;;;;;;7385605;19;20193;-76
2022/03/28 03:46:35;;;;;;;9.27;5.40;;;10.80;92.10;;;;;;7385723;19;20130;-76
2022/03/28 03:49:01;;;;;;;10.43;6.03;;;10.80;92.40;;;;;;7385454;19;20637;-77
2022/03/28 03:51:26;;;;;;;12.67;5.37;;;10.70;92.40;;;;;;7385752;19;20540;-75
2022/03/28 03:53:52;;;;;;;9.10;4.93;;;10.60;92.40;;;;;;7387516;19;20786;-76
2022/03/28 03:56:20;;;;;;;9.60;5.77;;;10.60;92.60;;;;;;7384839;19;20134;-75
2022/03/28 03:58:45;;;;;;;11.10;5.63;;;10.70;92.50;;;;;;7388117;19;20150;-76
2022/03/28 04:01:11;;;;;;;10.60;6.33;;;10.70;92.40;;;;;;7388145;19;20589;-76
2022/03/28 04:03:37;;;;;;;9.03;5.60;;;10.70;92.40;;;;;;7384837;19;20142;-76
2022/03/28 04:06:03;;;;;;;7.53;4.93;;;10.60;92.30;;;;;;7384059;19;20159;-75
2022/03/28 04:08:29;;;;;;;10.23;5.60;;;10.50;92.50;;;;;;7385195;19;20130;-75
2022/03/28 04:10:55;;;;;;;9.53;5.40;;;10.50;92.40;;;;;;7385183;19;20154;-75
2022/03/28 04:13:22;;;;;;;9.17;5.70;;;10.30;92.80;;;;;;7387929;19;20597;-75
2022/03/28 04:15:48;;;;;;;9.20;5.07;;;10.20;93.30;;;;;;7386206;19;20153;-75
2022/03/28 04:18:14;;;;;;;9.00;5.87;;;10.30;93.40;;;;;;7386543;19;20153;-75
2022/03/28 04:20:40;;;;;;;11.17;5.50;;;10.30;93.30;;;;;;7387708;19;20618;-75
2022/03/28 04:23:06;;;;;;;9.27;5.07;;;10.20;93.20;;;;;;7387172;19;20127;-75
2022/03/28 04:25:32;;;;;;;11.10;5.83;;;10.10;93.30;;;;;;7385507;19;20130;-76
2022/03/28 04:27:58;;;;;;;9.40;5.53;;;10.20;93.20;;;;;;7384347;19;20174;-76
2022/03/28 04:30:24;;;;;;;8.80;5.33;;;10.20;93.10;;;;;;7384314;19;20141;-76
2022/03/28 04:32:50;;;;;;;9.90;5.60;;;10.20;92.70;;;;;;7385432;19;20127;-75
2022/03/28 04:35:16;;;;;;;8.20;5.30;;;10.00;92.70;;;;;;7393030;19;20505;-75
2022/03/28 04:37:43;;;;;;;9.93;5.30;;;9.60;93.20;;;;;;7390539;19;20608;-75
2022/03/28 04:40:15;;;;;;;12.27;6.30;;;9.70;93.40;;;;;;7392495;19;20130;-76
2022/03/28 04:42:40;;;;;;;10.30;5.90;;;9.90;93.40;;;;;;7399517;19;20142;-76
2022/03/28 04:45:07;;;;;;;12.30;5.40;;;9.90;93.50;;;;;;7395806;19;20137;-76
2022/03/28 04:47:34;;;;;;;9.63;5.97;;;10.10;93.10;;;;;;7390533;19;20193;-75
2022/03/28 04:50:00;;;;;;;11.40;6.03;;;10.00;93.60;;;;;;7393430;19;20424;-75
2022/03/28 04:52:26;;;;;;;9.93;5.80;;;10.00;93.80;;;;;;7391110;19;20123;-75
2022/03/28 04:54:52;;;;;;;9.57;5.67;;;9.90;93.50;;;;;;7393706;19;20569;-75
2022/03/28 04:57:18;;;;;;;11.70;6.10;;;9.80;93.30;;;;;;7392082;19;20138;-76
2022/03/28 04:59:44;;;;;;;10.73;5.43;;;9.90;93.40;;;;;;7391220;19;20123;-76
2022/03/28 05:02:09;;;;;;;11.60;5.13;;;10.10;93.20;;;;;;7397084;19;20127;-75
2022/03/28 05:04:35;;;;;;;10.70;5.40;;;10.20;92.60;;;;;;7391367;19;20134;-76
2022/03/28 05:07:01;;;;;;;10.23;5.77;;;10.10;92.60;;;;;;7389992;19;20237;-76
2022/03/28 05:09:27;;;;;;;8.63;5.20;;;10.00;92.90;;;;;;7390926;19;20145;-76
2022/03/28 05:11:53;;;;;;;13.47;5.60;;;10.00;93.20;;;;;;7392229;19;20130;-75
2022/03/28 05:14:19;;;;;;;11.80;5.60;;;10.00;93.30;;;;;;7390492;19;20595;-76
2022/03/28 05:16:45;;;;;;;12.13;6.20;;;9.90;93.60;;;;;;7389375;19;20158;-74
2022/03/28 05:19:11;;;;;;;11.60;5.50;;;9.70;94.00;;;;;;7393040;19;20153;-75
2022/03/28 05:21:36;;;;;;;13.70;5.97;;;9.40;94.20;;;;;;7393034;19;20190;-75
2022/03/28 05:24:02;;;;;;;12.63;6.47;;;9.10;95.10;;;;;;7395620;19;20134;-76
2022/03/28 05:26:28;;;;;;;11.97;6.23;;;9.40;95.00;;;;;;7390190;19;20139;-76
2022/03/28 05:28:54;;;;;;;9.80;5.27;;;9.60;94.70;;;;;;7387870;19;20150;-75
2022/03/28 05:31:20;;;;;;;12.20;5.97;;;9.80;94.40;;;;;;7392331;19;20139;-75
2022/03/28 05:33:46;;;;;;;9.07;5.43;;;9.90;94.00;;;;;;7389593;19;20190;-76
2022/03/28 05:36:13;;;;;;;11.47;5.73;;;10.00;93.50;;;;;;7392485;19;20146;-75
2022/03/28 05:38:40;;;;;;;13.73;6.00;;;10.20;93.40;;;;;;7391108;19;20139;-75
2022/03/28 05:41:06;;;;;;;13.80;5.97;;;10.10;93.40;;;;;;7397359;19;20157;-76
2022/03/28 05:43:38;;;;;;;10.00;5.90;;;10.10;93.40;;;;;;7396127;19;20165;-74
2022/03/28 05:46:05;;;;;;;17.53;5.93;;;10.20;93.30;;;;;;7402548;19;20226;-75
2022/03/28 05:48:31;;;;;;;9.67;6.03;;;10.20;93.20;;;;;;7391448;19;20139;-75
2022/03/28 05:50:56;;;;;;;11.00;5.87;;;10.10;93.30;;;;;;7392848;19;20142;-76
2022/03/28 05:53:22;;;;;;;13.17;5.90;;;10.20;93.10;;;;;;7392111;19;20270;-75
2022/03/28 05:55:48;;;;;;;12.43;6.03;;;10.30;92.90;;;;;;7393740;19;20139;-75
2022/03/28 05:58:15;;;;;;;16.17;6.70;;;10.30;93.10;;;;;;7391602;19;20146;-75
2022/03/28 06:00:41;;;;;;;11.43;5.90;;;10.30;93.00;;;;;;7389376;19;20139;-76
2022/03/28 06:03:08;;;;;;;9.80;5.73;;;10.30;92.80;;;;;;7391370;19;20158;-73
2022/03/28 06:05:36;;;;;;;10.63;5.60;;;10.30;92.90;;;;;;7392257;19;20476;-73
2022/03/28 06:08:03;;;;;;;13.90;6.13;;;10.20;92.90;;;;;;7396233;19;20149;-73
2022/03/28 06:10:29;;;;;;;12.53;6.47;;;10.20;92.90;;;;;;7392752;19;20174;-74
2022/03/28 06:12:55;;;;;;;11.13;6.20;;;10.20;93.00;;;;;;7390930;19;20138;-75
2022/03/28 06:15:21;;;;;;;11.37;6.13;;;10.10;93.00;;;;;;7388444;19;20138;-74
2022/03/28 06:17:47;;;;;;;14.73;6.57;;;10.10;93.10;;;;;;7385910;19;20139;-72
2022/03/28 06:20:14;;;;;;;14.90;6.53;;;10.20;93.00;;;;;;7388253;19;20146;-73
2022/03/28 06:22:40;;;;;;;10.70;5.83;;;10.20;93.20;;;;;;7391021;19;20597;-75
2022/03/28 06:25:08;;;;;;;10.30;5.80;;;10.20;93.30;;;;;;7389992;19;20146;-73
2022/03/28 06:27:40;;;;;;;12.00;7.13;;;10.20;93.30;;;;;;7389311;19;20135;-71
2022/03/28 06:30:11;;;;;;;12.50;6.37;;;10.20;93.20;;;;;;7392978;19;20824;-74
2022/03/28 06:32:38;;;;;;;10.47;6.03;;;10.20;93.20;;;;;;7386134;19;20130;-73
2022/03/28 06:35:05;;;;;;;12.47;6.20;;;10.30;93.00;;;;;;7389204;19;20141;-73
2022/03/28 06:37:31;;;;;;;13.83;6.37;;;10.20;93.10;;;;;;7386741;19;20130;-75
2022/03/28 06:39:56;;;;;;;11.93;5.90;;;10.40;92.80;;;;;;7387904;19;20574;-75
2022/03/28 06:42:22;;;;;;;11.37;5.83;;;10.40;92.70;;;;;;7391124;19;20140;-74
2022/03/28 06:44:48;;;;;;;11.33;6.27;;;10.30;92.70;;;;;;7387888;19;20131;-72
2022/03/28 06:47:14;;;;;;;11.70;6.33;;;10.30;92.90;;;;;;7387371;19;20190;-72
2022/03/28 06:49:39;;;;;;;11.40;5.67;;;10.50;92.70;;;;;;7393598;19;20148;-73
2022/03/28 06:52:06;;;;;;;14.47;5.93;;;10.50;92.60;;;;;;7387417;19;20127;-73
2022/03/28 06:54:33;;;;;;;15.10;6.00;;;10.50;92.80;;;;;;7386963;19;20209;-76
2022/03/28 06:56:59;;;;;;;11.00;5.97;;;10.60;92.80;;;;;;7383610;19;20553;-75
2022/03/28 06:59:24;;;;;;;11.97;5.90;;;10.60;92.80;;;;;;7388171;19;20134;-77
2022/03/28 07:01:51;;;;;;;12.50;5.93;;;10.70;92.30;;;;;;7387133;19;20473;-73
2022/03/28 07:04:20;;;;;;;10.37;6.17;;;10.70;92.20;;;;;;7388228;19;20168;-75
2022/03/28 07:06:47;;;;;;;10.80;6.03;;;10.80;92.10;;;;;;7386477;19;20202;-73
2022/03/28 07:09:12;;;;;;;10.20;6.20;;;10.70;92.10;;;;;;7392188;19;20127;-73
2022/03/28 07:11:38;;;;;;;12.43;5.70;;;10.70;92.10;;;;;;7396875;19;20142;-75
2022/03/28 07:14:04;;;;;;;11.47;6.80;;;10.70;92.10;;;;;;7392605;19;20134;-73
2022/03/28 07:16:29;;;;;;;11.77;6.43;;;10.80;92.00;;;;;;7386996;19;20637;-72
2022/03/28 07:18:55;;;;;;;11.30;6.30;;;10.80;92.10;;;;;;7384775;19;20138;-74
2022/03/28 07:21:21;;;;;;;14.23;6.60;;;10.80;92.00;;;;;;7386527;19;20130;-72
2022/03/28 07:23:48;;;;;;;10.70;6.43;;;10.80;92.00;;;;;;7385803;19;20190;-74
2022/03/28 07:26:14;;;;;;;12.43;6.60;;;10.70;92.00;;;;;;7386031;19;20134;-73
2022/03/28 07:28:40;;;;;;;10.23;6.00;;;10.80;92.00;;;;;;7385122;19;20234;-75
2022/03/28 07:31:09;;;;;;;13.87;7.20;;;10.90;91.80;;;;;;7388480;19;20139;-73
2022/03/28 07:33:39;;;;;;;12.23;6.50;;;10.90;91.70;;;;;;7393567;19;20138;-75
2022/03/28 07:36:05;;;;;;;11.57;6.40;;;10.90;91.70;;;;;;7388883;19;20521;-73
2022/03/28 07:38:32;;;;;;;12.97;6.37;;;11.00;91.60;;;;;;7385413;19;20493;-73
2022/03/28 07:40:59;;;;;;;14.77;7.80;;;11.10;91.40;;;;;;7388156;19;20138;-72
2022/03/28 07:43:24;;;;;;;11.43;6.53;;;11.20;91.40;;;;;;7392332;19;20134;-72
2022/03/28 07:45:53;;;;;;;14.53;6.80;;;11.30;91.20;;;;;;7385322;19;20137;-73
2022/03/28 07:48:19;;;;;;;13.33;7.03;;;11.30;91.10;;;;;;7385362;19;20127;-75
2022/03/28 07:50:45;;;;;;;14.07;6.57;;;11.40;91.10;;;;;;7387498;19;20154;-74
2022/03/28 07:53:12;;;;;;;15.17;7.50;;;11.50;90.90;;;;;;7388670;19;20131;-75
2022/03/28 07:55:39;;;;;;;14.00;6.73;;;11.50;90.90;;;;;;7389155;19;20601;-73
2022/03/28 07:58:07;;;;;;;12.13;6.80;;;11.60;90.80;;;;;;7385348;19;20134;-76
2022/03/28 08:00:33;;;;;;;12.97;6.47;;;11.70;90.80;;;;;;7384495;19;20154;-72
2022/03/28 08:03:00;;;;;;;12.47;6.70;;;11.80;90.70;;;;;;7385276;19;20543;-75
2022/03/28 08:05:27;;;;;;;15.93;7.20;;;11.80;90.70;;;;;;7386623;19;20134;-76
2022/03/28 08:07:53;;;;;;;14.63;7.10;;;11.90;90.60;;;;;;7385007;19;20247;-74
2022/03/28 08:10:21;;;;;;;11.27;6.70;;;12.00;90.50;;;;;;7385531;19;20131;-75
2022/03/28 08:12:48;;;;;;;12.93;7.33;;;12.00;90.50;;;;;;7389882;19;20119;-75
2022/03/28 08:15:15;;;;;;;15.73;6.60;;;12.10;90.40;;;;;;7394890;19;20610;-76
2022/03/28 08:17:41;;;;;;;13.53;7.53;;;12.30;90.30;;;;;;7383853;19;20161;-72
2022/03/28 08:20:12;;;;;;;15.83;6.93;;;12.50;90.20;;;;;;7383830;19;20131;-76
2022/03/28 08:22:48;;;;;;;10.67;6.83;;;12.60;90.10;;;;;;7386712;19;20142;-76
2022/03/28 08:25:15;;;;;;;17.33;7.23;;;12.80;90.00;;;;;;7385998;19;20201;-76
2022/03/28 08:27:41;;;;;;;13.07;7.23;;;13.00;89.40;;;;;;7383650;19;20166;-75
2022/03/28 08:30:07;;;;;;;15.83;7.13;;;13.20;89.00;;;;;;7385388;19;20131;-75
2022/03/28 08:32:33;;;;;;;16.43;8.17;;;13.30;88.70;;;;;;7389045;19;20148;-73
2022/03/28 08:34:59;;;;;;;16.87;6.90;;;13.40;88.50;;;;;;7393970;19;20126;-73
2022/03/28 08:37:27;;;;;;;14.50;7.63;;;13.70;88.40;;;;;;7385895;19;20164;-75
2022/03/28 08:39:55;;;;;;;13.73;7.83;;;13.80;87.80;;;;;;7385998;19;20147;-73
2022/03/28 08:42:25;;;;;;;16.03;7.67;;;13.90;87.60;;;;;;7387101;19;20218;-75
2022/03/28 08:44:51;;;;;;;15.37;7.37;;;14.00;87.60;;;;;;7384586;19;20621;-73
2022/03/28 08:47:19;;;;;;;13.57;7.10;;;14.10;87.20;;;;;;7384564;19;20210;-75
2022/03/28 08:49:49;;;;;;;12.10;7.00;;;14.10;87.10;;;;;;7383773;19;20138;-75
2022/03/28 08:52:20;;;;;;;13.57;7.27;;;14.30;86.90;;;;;;7384949;19;20198;-73
2022/03/28 08:54:47;;;;;;;13.20;7.17;;;14.40;86.30;;;;;;7385303;19;20137;-75
2022/03/28 08:57:15;;;;;;;16.10;7.53;;;14.40;86.10;;;;;;7383758;19;20138;-73
2022/03/28 08:59:41;;;;;;;11.90;7.57;;;14.60;85.80;;;;;;7388780;19;20137;-75
2022/03/28 09:02:31;;;;;;;14.53;8.40;;;14.70;85.40;;;;;;7387725;19;20538;-72
2022/03/28 09:04:58;;;;;;;13.83;7.93;;;14.70;85.20;;;;;;7382819;19;20605;-75
2022/03/28 09:07:28;;;;;;;18.73;7.88;;;14.80;84.70;;;;;;7382064;19;20130;-74
2022/03/28 09:10:03;;;;;;;15.00;7.72;;;14.80;83.50;;;;;;7382735;19;20135;-76
2022/03/28 09:12:28;;;;;;;17.00;7.77;;;14.80;83.20;;;;;;7384913;19;20215;-73
2022/03/28 09:15:01;;;;;;;14.87;8.13;;;14.80;82.80;;;;;;7382920;19;20150;-73
2022/03/28 09:17:28;;;;;;;17.23;8.30;;;15.00;82.40;;;;;;7381764;19;20143;-76
2022/03/28 09:20:01;;;;;;;15.53;7.60;;;15.00;81.50;;;;;;7385892;19;20150;-73
2022/03/28 09:22:32;;;;;;;15.90;7.60;;;15.00;81.50;;;;;;7396810;19;20127;-74
2022/03/28 09:25:03;;;;;;;14.40;8.32;;;15.10;81.90;;;;;;7391857;19;20127;-75
2022/03/28 09:27:34;;;;;;;15.77;8.27;;;15.30;82.20;;;;;;7389830;19;20209;-73
2022/03/28 09:30:15;;;;;;;16.52;8.10;;;15.40;81.90;;;;;;7391286;19;20139;-75
2022/03/28 09:32:48;;;;;;;16.52;8.20;;;15.50;81.50;;;;;;7392110;19;20130;-73
2022/03/28 09:35:19;;;;;;;14.40;8.27;;;15.60;79.80;;;;;;7391734;19;20253;-74
2022/03/28 09:37:56;;;;;;;14.15;8.52;;;15.70;80.20;;;;;;7390276;19;20530;-73
2022/03/28 09:40:42;;;;;;;14.45;8.48;;;15.90;79.50;;;;;;7389876;19;20193;-73
2022/03/28 09:43:22;;;;;;;15.93;8.60;;;15.90;78.60;;;;;;7396378;19;20133;-74
2022/03/28 09:45:57;;;;;;;16.58;8.43;;;16.00;78.80;;;;;;7389286;19;20518;-75
2022/03/28 09:48:25;;;;;;;16.80;8.23;;;16.10;78.50;;;;;;7391156;19;20134;-74
2022/03/28 09:51:09;;;;;;;15.75;7.97;;;16.20;78.10;;;;;;7389146;19;20202;-73
2022/03/28 09:53:38;;;;;;;16.00;9.07;;;16.30;77.70;;;;;;7389917;19;20617;-73
2022/03/28 09:56:06;;;;;;;16.83;8.30;;;16.40;77.70;;;;;;7387462;19;20146;-74
2022/03/28 09:58:42;;;;;;;14.77;8.40;;;16.40;77.60;;;;;;7388352;19;20625;-72
2022/03/28 10:01:13;;;;;;;15.90;8.90;;;16.50;77.90;;;;;;7389250;19;20135;-73
2022/03/28 10:03:39;;;;;;;15.38;8.93;;;16.60;78.50;;;;;;7392325;19;20127;-75
2022/03/28 10:06:07;;;;;;;14.27;8.25;;;16.70;78.40;;;;;;7390014;19;20162;-76
2022/03/28 10:08:35;;;;;;;15.15;9.52;;;16.80;78.40;;;;;;7391035;19;20164;-76
2022/03/28 10:11:02;;;;;;;17.73;10.05;;;16.80;79.20;;;;;;7388272;19;20146;-73
2022/03/28 10:13:29;;;;;;;21.80;9.70;;;17.00;78.70;;;;;;7391965;19;20142;-74
2022/03/28 10:15:58;;;;;;;18.15;8.88;;;17.00;78.70;;;;;;7387592;19;20142;-72
2022/03/28 10:18:32;;;;;;;15.95;8.90;;;17.10;79.00;;;;;;7385521;19;20218;-75
2022/03/28 10:21:02;;;;;;;15.90;9.20;;;17.10;79.00;;;;;;7387828;19;20806;-75
2022/03/28 10:24:08;;;;;;;18.23;8.80;;;17.20;78.90;;;;;;7389928;19;20130;-75
2022/03/28 10:26:40;;;;;;;14.35;9.35;;;17.30;79.10;;;;;;7386574;19;20171;-73
2022/03/28 10:29:07;;;;;;;17.20;9.05;;;17.40;79.40;;;;;;7386971;19;20139;-77
2022/03/28 10:31:34;;;;;;;16.15;9.20;;;17.40;78.80;;;;;;7387130;19;20131;-73
2022/03/28 10:34:02;;;;;;;19.85;10.07;;;17.60;78.70;;;;;;7389650;19;20573;-76
2022/03/28 10:36:34;;;;;;;15.50;9.77;;;17.70;78.40;;;;;;7390786;19;20590;-72
2022/03/28 10:39:35;;;;;;;16.73;8.45;;;17.90;78.30;;;;;;7385416;19;20158;-76
2022/03/28 10:42:22;;;;;;;14.90;8.68;;;18.00;78.00;;;;;;7389768;19;20150;-74
2022/03/28 10:45:03;;;;;;;17.25;9.65;;;18.10;78.10;;;;;;7390335;19;20152;-72
2022/03/28 10:47:46;;;;;;;15.38;9.10;;;18.20;77.40;;;;;;7385487;19;20134;-73
2022/03/28 10:50:16;;;;;;;19.00;9.20;;;18.30;77.20;;;;;;7386521;19;20134;-79
2022/03/28 10:53:13;;;;;;;18.95;9.52;;;18.40;76.70;;;;;;7386926;19;20145;-76
2022/03/28 10:55:51;;;;;;;18.98;9.40;;;18.60;75.70;;;;;;7385920;19;20135;-74
2022/03/28 10:58:26;;;;;;;19.40;8.82;;;18.60;75.10;;;;;;7385525;19;20538;-78
2022/03/28 11:01:11;;;;;;;14.00;8.30;;;18.70;74.60;;;;;;7387419;19;20130;-77
2022/03/28 11:03:38;;;;;;;15.32;8.82;;;18.70;74.70;;;;;;7387264;19;20585;-73
2022/03/28 11:06:05;;;;;;;14.20;8.80;;;18.70;74.30;;;;;;7386961;19;20162;-73
2022/03/28 11:08:31;;;;;;;13.38;8.40;;;18.70;73.40;;;;;;7387391;19;20250;-73
2022/03/28 11:11:23;;;;;;;14.80;9.05;;;18.80;72.40;;;;;;7385190;19;20138;-74
2022/03/28 11:14:08;;;;;;;14.45;8.00;;;18.90;72.50;;;;;;7389567;19;20210;-76
2022/03/28 11:16:53;;;;;;;15.18;8.20;;;19.00;71.50;;;;;;7395372;19;20141;-74
2022/03/28 11:19:34;;;;;;;13.77;7.53;;;19.10;70.70;;;;;;7386590;19;20194;-75
2022/03/28 11:22:08;;;;;;;14.48;8.70;;;19.10;70.00;;;;;;7387837;19;20126;-74
2022/03/28 11:24:46;;;;;;;16.10;8.80;;;19.20;69.70;;;;;;7387076;19;20490;-75
2022/03/28 11:27:14;;;;;;;16.17;8.50;;;19.30;69.10;;;;;;7385011;19;20534;-73
2022/03/28 11:29:41;;;;;;;14.80;7.78;;;19.30;68.90;;;;;;7384064;19;20135;-74
2022/03/28 11:32:13;;;;;;;14.52;8.63;;;19.40;69.00;;;;;;7385936;19;20158;-77
2022/03/28 11:34:39;;;;;;;17.67;10.43;;;19.40;68.70;;;;;;7385759;19;20140;-77
2022/03/28 11:37:06;;;;;;;15.05;8.32;;;19.40;69.10;;;;;;7386432;19;20127;-76
2022/03/28 11:40:04;;;;;;;15.52;9.07;;;19.60;68.80;;;;;;7386524;19;20513;-76
2022/03/28 11:42:33;;;;;;;13.10;8.45;;;19.60;68.70;;;;;;7388088;19;20556;-73
2022/03/28 11:45:11;;;;;;;14.98;9.32;;;19.60;68.00;;;;;;7384497;19;20126;-76
2022/03/28 11:47:39;;;;;;;17.30;8.65;;;19.60;67.60;;;;;;7385006;19;20126;-73
2022/03/28 11:50:08;;;;;;;13.70;8.73;;;19.70;67.80;;;;;;7387260;19;20126;-76
2022/03/28 11:52:35;;;;;;;15.43;7.80;;;19.60;67.80;;;;;;7386742;19;20135;-75
2022/03/28 11:55:02;;;;;;;16.30;9.25;;;19.70;67.60;;;;;;7386799;19;20131;-76
2022/03/28 12:00:20;;;;;;;13.85;8.77;;;19.90;67.00;;;;;;7385231;19;20147;-74
2022/03/28 12:02:54;;;;;;;15.48;9.13;;;19.90;67.00;;;;;;7384925;19;20598;-72
2022/03/28 12:05:31;;;;;;;16.17;8.90;;;20.00;66.80;;;;;;7384362;19;20123;-74
2022/03/28 12:07:59;;;;;;;16.15;9.18;;;20.00;66.80;;;;;;7385575;19;20134;-72
2022/03/28 12:10:32;;;;;;;15.80;8.75;;;20.00;67.20;;;;;;7384740;19;20145;-76
2022/03/28 12:12:59;;;;;;;15.60;8.98;;;20.10;67.30;;;;;;7387241;19;20131;-73
2022/03/28 12:15:30;;;;;;;15.43;8.77;;;20.10;67.20;;;;;;7384646;19;20613;-74
2022/03/28 12:17:59;;;;;;;19.15;9.98;;;20.10;67.60;;;;;;7384530;19;20188;-75
2022/03/28 12:20:36;;;;;;;18.60;9.00;;;20.20;68.00;;;;;;7383744;19;20139;-75
2022/03/28 12:23:04;;;;;;;17.55;9.27;;;20.30;68.10;;;;;;7384250;19;20138;-73
2022/03/28 12:25:44;;;;;;;16.75;8.95;;;20.40;68.50;;;;;;7383233;19;20146;-76
2022/03/28 12:28:13;;;;;;;17.83;9.07;;;20.50;68.80;;;;;;7384808;19;20617;-76
2022/03/28 12:30:42;;;;;;;17.50;9.80;;;20.50;68.70;;;;;;7383702;19;20130;-75
2022/03/28 12:33:11;;;;;;;18.02;10.07;;;20.50;69.00;;;;;;7383919;19;20142;-75
2022/03/28 12:35:43;;;;;;;15.70;8.88;;;20.40;69.00;;;;;;7386730;19;20126;-74
2022/03/28 12:38:15;;;;;;;15.23;9.07;;;20.30;70.00;;;;;;7383176;19;20665;-74
2022/03/28 12:40:44;;;;;;;14.68;8.75;;;20.30;70.50;;;;;;7384744;19;20489;-74
2022/03/28 12:43:11;;;;;;;17.77;9.05;;;20.50;69.90;;;;;;7387771;19;20198;-77
2022/03/28 12:45:38;;;;;;;13.60;8.48;;;20.50;69.80;;;;;;7383767;19;20133;-74
2022/03/28 12:48:10;;;;;;;13.60;8.30;;;20.50;69.60;;;;;;7382616;19;20166;-75
2022/03/28 12:50:36;;;;;;;13.48;8.30;;;20.50;69.90;;;;;;7384853;19;20252;-76
2022/03/28 12:53:10;;;;;;;14.75;8.10;;;20.50;70.20;;;;;;7384421;19;20136;-76